sensor_id;sensor_type;location;lat;lon;timestamp;P1;durP1;ratioP1;P2;durP2;ratioP2
21677;SDS011;11000;50.360;7.582;2022-12-07T00:01:26;13.90;;;9.10;;
21677;SDS011;11000;50.360;7.582;2022-12-07T00:03:49;14.13;;;9.03;;
21677;SDS011;11000;50.360;7.582;2022-12-07T00:06:12;12.13;;;8.10;;
21677;SDS011;11000;50.360;7.582;2022-12-07T00:08:35;16.73;;;8.43;;
21677;SDS011;11000;50.360;7.582;2022-12-07T00:11:00;12.00;;;7.63;;
21677;SDS011;11000;50.360;7.582;2022-12-07T00:13:22;14.20;;;9.20;;
21677;SDS011;11000;50.360;7.582;2022-12-07T00:15:42;12.97;;;8.93;;
21677;SDS011;11000;50.360;7.582;2022-12-07T00:18:03;12.20;;;7.90;;
21677;SDS011;11000;50.360;7.582;2022-12-07T00:20:24;13.47;;;8.13;;
21677;SDS011;11000;50.360;7.582;2022-12-07T00:22:44;13.90;;;8.53;;
21677;SDS011;11000;50.360;7.582;2022-12-07T00:25:05;14.70;;;8.70;;
21677;SDS011;11000;50.360;7.582;2022-12-07T00:27:26;14.87;;;8.60;;
21677;SDS011;11000;50.360;7.582;2022-12-07T00:29:47;13.27;;;8.73;;
21677;SDS011;11000;50.360;7.582;2022-12-07T00:32:07;13.23;;;8.53;;
21677;SDS011;11000;50.360;7.582;2022-12-07T00:34:28;13.83;;;8.80;;
21677;SDS011;11000;50.360;7.582;2022-12-07T00:36:49;14.43;;;8.10;;
21677;SDS011;11000;50.360;7.582;2022-12-07T00:39:10;15.30;;;8.50;;
21677;SDS011;11000;50.360;7.582;2022-12-07T00:41:31;12.60;;;7.93;;
21677;SDS011;11000;50.360;7.582;2022-12-07T00:43:51;13.00;;;8.73;;
21677;SDS011;11000;50.360;7.582;2022-12-07T00:46:13;11.30;;;8.03;;
21677;SDS011;11000;50.360;7.582;2022-12-07T00:48:34;13.17;;;8.20;;
21677;SDS011;11000;50.360;7.582;2022-12-07T00:50:55;13.20;;;8.60;;
21677;SDS011;11000;50.360;7.582;2022-12-07T00:53:16;12.83;;;7.60;;
21677;SDS011;11000;50.360;7.582;2022-12-07T00:55:37;13.80;;;7.93;;
21677;SDS011;11000;50.360;7.582;2022-12-07T00:57:57;13.30;;;8.97;;
21677;SDS011;11000;50.360;7.582;2022-12-07T01:00:18;13.73;;;9.40;;
21677;SDS011;11000;50.360;7.582;2022-12-07T01:02:39;13.80;;;8.27;;
21677;SDS011;11000;50.360;7.582;2022-12-07T01:04:59;16.27;;;8.40;;
21677;SDS011;11000;50.360;7.582;2022-12-07T01:07:20;14.47;;;8.90;;
21677;SDS011;11000;50.360;7.582;2022-12-07T01:09:40;15.70;;;9.37;;
21677;SDS011;11000;50.360;7.582;2022-12-07T01:12:01;13.63;;;8.73;;
21677;SDS011;11000;50.360;7.582;2022-12-07T01:14:22;14.10;;;8.10;;
21677;SDS011;11000;50.360;7.582;2022-12-07T01:16:43;14.40;;;8.33;;
21677;SDS011;11000;50.360;7.582;2022-12-07T01:19:03;11.40;;;8.37;;
21677;SDS011;11000;50.360;7.582;2022-12-07T01:21:25;13.80;;;7.97;;
21677;SDS011;11000;50.360;7.582;2022-12-07T01:23:48;13.73;;;8.53;;
21677;SDS011;11000;50.360;7.582;2022-12-07T01:26:11;14.47;;;8.53;;
21677;SDS011;11000;50.360;7.582;2022-12-07T01:28:34;11.73;;;8.07;;
21677;SDS011;11000;50.360;7.582;2022-12-07T01:30:59;14.30;;;8.10;;
21677;SDS011;11000;50.360;7.582;2022-12-07T01:33:39;15.30;;;9.17;;
21677;SDS011;11000;50.360;7.582;2022-12-07T01:36:00;13.87;;;8.63;;
21677;SDS011;11000;50.360;7.582;2022-12-07T01:38:25;15.00;;;9.37;;
21677;SDS011;11000;50.360;7.582;2022-12-07T01:40:53;17.53;;;10.30;;
21677;SDS011;11000;50.360;7.582;2022-12-07T01:43:16;14.47;;;8.67;;
21677;SDS011;11000;50.360;7.582;2022-12-07T01:45:39;16.40;;;9.77;;
21677;SDS011;11000;50.360;7.582;2022-12-07T01:48:00;14.87;;;9.73;;
21677;SDS011;11000;50.360;7.582;2022-12-07T01:50:23;15.07;;;9.90;;
21677;SDS011;11000;50.360;7.582;2022-12-07T01:52:48;16.53;;;10.00;;
21677;SDS011;11000;50.360;7.582;2022-12-07T01:55:11;15.57;;;9.97;;
21677;SDS011;11000;50.360;7.582;2022-12-07T01:57:34;16.23;;;9.47;;
21677;SDS011;11000;50.360;7.582;2022-12-07T01:59:58;18.57;;;9.80;;
21677;SDS011;11000;50.360;7.582;2022-12-07T02:02:23;14.67;;;9.50;;
21677;SDS011;11000;50.360;7.582;2022-12-07T02:04:48;15.53;;;9.67;;
21677;SDS011;11000;50.360;7.582;2022-12-07T02:07:11;16.13;;;10.43;;
21677;SDS011;11000;50.360;7.582;2022-12-07T02:09:32;18.23;;;10.63;;
21677;SDS011;11000;50.360;7.582;2022-12-07T02:11:53;17.03;;;9.43;;
21677;SDS011;11000;50.360;7.582;2022-12-07T02:14:14;15.93;;;9.73;;
21677;SDS011;11000;50.360;7.582;2022-12-07T02:22:35;14.57;;;10.17;;
21677;SDS011;11000;50.360;7.582;2022-12-07T02:28:01;16.50;;;10.13;;
21677;SDS011;11000;50.360;7.582;2022-12-07T02:30:30;16.27;;;10.30;;
21677;SDS011;11000;50.360;7.582;2022-12-07T02:33:15;15.07;;;10.00;;
21677;SDS011;11000;50.360;7.582;2022-12-07T02:35:39;15.47;;;10.60;;
21677;SDS011;11000;50.360;7.582;2022-12-07T02:43:48;15.87;;;10.20;;
21677;SDS011;11000;50.360;7.582;2022-12-07T02:46:14;16.90;;;10.27;;
21677;SDS011;11000;50.360;7.582;2022-12-07T02:48:38;16.80;;;11.60;;
21677;SDS011;11000;50.360;7.582;2022-12-07T02:51:01;17.50;;;10.67;;
21677;SDS011;11000;50.360;7.582;2022-12-07T02:55:56;16.07;;;10.67;;
21677;SDS011;11000;50.360;7.582;2022-12-07T02:58:20;19.67;;;11.53;;
21677;SDS011;11000;50.360;7.582;2022-12-07T03:01:15;21.07;;;11.43;;
21677;SDS011;11000;50.360;7.582;2022-12-07T03:03:38;15.40;;;10.37;;
21677;SDS011;11000;50.360;7.582;2022-12-07T03:11:33;17.13;;;10.60;;
21677;SDS011;11000;50.360;7.582;2022-12-07T03:16:42;18.80;;;10.70;;
21677;SDS011;11000;50.360;7.582;2022-12-07T03:19:26;15.77;;;10.03;;
21677;SDS011;11000;50.360;7.582;2022-12-07T03:21:49;16.67;;;11.13;;
21677;SDS011;11000;50.360;7.582;2022-12-07T03:24:18;16.77;;;10.83;;
21677;SDS011;11000;50.360;7.582;2022-12-07T03:26:45;17.50;;;10.57;;
21677;SDS011;11000;50.360;7.582;2022-12-07T03:29:11;14.83;;;10.50;;
21677;SDS011;11000;50.360;7.582;2022-12-07T03:31:41;16.10;;;10.73;;
21677;SDS011;11000;50.360;7.582;2022-12-07T03:34:11;16.50;;;10.17;;
21677;SDS011;11000;50.360;7.582;2022-12-07T03:39:27;17.93;;;11.43;;
21677;SDS011;11000;50.360;7.582;2022-12-07T03:42:10;15.67;;;9.73;;
21677;SDS011;11000;50.360;7.582;2022-12-07T03:44:32;19.67;;;10.93;;
21677;SDS011;11000;50.360;7.582;2022-12-07T03:55:20;16.40;;;10.33;;
21677;SDS011;11000;50.360;7.582;2022-12-07T03:57:47;15.37;;;10.17;;
21677;SDS011;11000;50.360;7.582;2022-12-07T04:00:12;18.00;;;10.50;;
21677;SDS011;11000;50.360;7.582;2022-12-07T04:02:33;16.97;;;10.37;;
21677;SDS011;11000;50.360;7.582;2022-12-07T04:04:55;17.27;;;10.60;;
21677;SDS011;11000;50.360;7.582;2022-12-07T04:07:16;16.83;;;10.73;;
21677;SDS011;11000;50.360;7.582;2022-12-07T04:09:36;17.10;;;10.90;;
21677;SDS011;11000;50.360;7.582;2022-12-07T04:11:57;18.47;;;11.07;;
21677;SDS011;11000;50.360;7.582;2022-12-07T04:14:18;16.10;;;10.77;;
21677;SDS011;11000;50.360;7.582;2022-12-07T04:16:38;17.23;;;10.17;;
21677;SDS011;11000;50.360;7.582;2022-12-07T04:18:59;16.10;;;9.93;;
21677;SDS011;11000;50.360;7.582;2022-12-07T04:21:19;16.93;;;10.10;;
21677;SDS011;11000;50.360;7.582;2022-12-07T04:23:40;17.97;;;10.73;;
21677;SDS011;11000;50.360;7.582;2022-12-07T04:26:00;16.37;;;10.33;;
21677;SDS011;11000;50.360;7.582;2022-12-07T04:28:20;17.07;;;10.63;;
21677;SDS011;11000;50.360;7.582;2022-12-07T04:30:41;14.77;;;10.23;;
21677;SDS011;11000;50.360;7.582;2022-12-07T04:33:01;18.80;;;11.03;;
21677;SDS011;11000;50.360;7.582;2022-12-07T04:35:22;14.83;;;10.07;;
21677;SDS011;11000;50.360;7.582;2022-12-07T04:37:42;18.23;;;10.83;;
21677;SDS011;11000;50.360;7.582;2022-12-07T04:40:03;16.60;;;9.93;;
21677;SDS011;11000;50.360;7.582;2022-12-07T04:42:24;16.07;;;10.40;;
21677;SDS011;11000;50.360;7.582;2022-12-07T04:44:45;15.77;;;10.37;;
21677;SDS011;11000;50.360;7.582;2022-12-07T04:47:05;16.20;;;10.23;;
21677;SDS011;11000;50.360;7.582;2022-12-07T04:49:26;19.27;;;12.10;;
21677;SDS011;11000;50.360;7.582;2022-12-07T04:51:47;18.30;;;10.87;;
21677;SDS011;11000;50.360;7.582;2022-12-07T04:54:07;19.53;;;11.00;;
21677;SDS011;11000;50.360;7.582;2022-12-07T04:56:28;19.07;;;11.87;;
21677;SDS011;11000;50.360;7.582;2022-12-07T04:58:49;14.67;;;10.27;;
21677;SDS011;11000;50.360;7.582;2022-12-07T05:01:11;16.67;;;10.57;;
21677;SDS011;11000;50.360;7.582;2022-12-07T05:03:32;17.93;;;10.90;;
21677;SDS011;11000;50.360;7.582;2022-12-07T05:05:52;17.10;;;10.60;;
21677;SDS011;11000;50.360;7.582;2022-12-07T05:08:13;17.70;;;10.87;;
21677;SDS011;11000;50.360;7.582;2022-12-07T05:10:33;19.23;;;10.90;;
21677;SDS011;11000;50.360;7.582;2022-12-07T05:12:54;19.23;;;11.03;;
21677;SDS011;11000;50.360;7.582;2022-12-07T05:15:15;18.90;;;11.17;;
21677;SDS011;11000;50.360;7.582;2022-12-07T05:17:35;18.53;;;10.60;;
21677;SDS011;11000;50.360;7.582;2022-12-07T05:19:56;16.87;;;11.40;;
21677;SDS011;11000;50.360;7.582;2022-12-07T05:22:16;17.57;;;11.37;;
21677;SDS011;11000;50.360;7.582;2022-12-07T05:24:37;17.80;;;11.80;;
21677;SDS011;11000;50.360;7.582;2022-12-07T05:26:57;16.30;;;11.07;;
21677;SDS011;11000;50.360;7.582;2022-12-07T05:29:18;16.97;;;11.80;;
21677;SDS011;11000;50.360;7.582;2022-12-07T05:31:38;16.93;;;11.03;;
21677;SDS011;11000;50.360;7.582;2022-12-07T05:33:59;15.33;;;10.47;;
21677;SDS011;11000;50.360;7.582;2022-12-07T05:36:20;17.77;;;11.70;;
21677;SDS011;11000;50.360;7.582;2022-12-07T05:38:41;16.07;;;10.53;;
21677;SDS011;11000;50.360;7.582;2022-12-07T05:41:02;16.57;;;11.03;;
21677;SDS011;11000;50.360;7.582;2022-12-07T05:43:24;18.83;;;11.73;;
21677;SDS011;11000;50.360;7.582;2022-12-07T05:45:44;21.60;;;11.63;;
21677;SDS011;11000;50.360;7.582;2022-12-07T05:48:05;19.63;;;11.83;;
21677;SDS011;11000;50.360;7.582;2022-12-07T05:50:25;17.13;;;11.40;;
21677;SDS011;11000;50.360;7.582;2022-12-07T05:52:47;15.23;;;9.77;;
21677;SDS011;11000;50.360;7.582;2022-12-07T05:55:08;18.43;;;11.33;;
21677;SDS011;11000;50.360;7.582;2022-12-07T05:57:28;18.27;;;10.30;;
21677;SDS011;11000;50.360;7.582;2022-12-07T05:59:49;17.47;;;11.77;;
21677;SDS011;11000;50.360;7.582;2022-12-07T06:02:10;16.77;;;10.37;;
21677;SDS011;11000;50.360;7.582;2022-12-07T06:04:34;15.83;;;10.20;;
21677;SDS011;11000;50.360;7.582;2022-12-07T06:06:56;16.03;;;11.20;;
21677;SDS011;11000;50.360;7.582;2022-12-07T06:09:17;21.80;;;12.30;;
21677;SDS011;11000;50.360;7.582;2022-12-07T06:11:39;16.93;;;11.10;;
21677;SDS011;11000;50.360;7.582;2022-12-07T06:14:19;20.00;;;11.40;;
21677;SDS011;11000;50.360;7.582;2022-12-07T06:16:39;15.77;;;10.07;;
21677;SDS011;11000;50.360;7.582;2022-12-07T06:19:00;21.93;;;11.77;;
21677;SDS011;11000;50.360;7.582;2022-12-07T06:21:20;18.60;;;11.50;;
21677;SDS011;11000;50.360;7.582;2022-12-07T06:23:41;19.63;;;12.23;;
21677;SDS011;11000;50.360;7.582;2022-12-07T06:26:01;15.50;;;11.10;;
21677;SDS011;11000;50.360;7.582;2022-12-07T06:28:22;18.70;;;11.03;;
21677;SDS011;11000;50.360;7.582;2022-12-07T06:30:42;17.23;;;12.00;;
21677;SDS011;11000;50.360;7.582;2022-12-07T06:33:03;19.83;;;11.67;;
21677;SDS011;11000;50.360;7.582;2022-12-07T06:35:23;15.83;;;10.97;;
21677;SDS011;11000;50.360;7.582;2022-12-07T06:37:44;15.70;;;10.60;;
21677;SDS011;11000;50.360;7.582;2022-12-07T06:40:05;14.67;;;10.37;;
21677;SDS011;11000;50.360;7.582;2022-12-07T06:42:26;20.00;;;11.60;;
21677;SDS011;11000;50.360;7.582;2022-12-07T06:44:46;17.90;;;11.30;;
21677;SDS011;11000;50.360;7.582;2022-12-07T06:47:07;17.27;;;11.30;;
21677;SDS011;11000;50.360;7.582;2022-12-07T06:49:29;19.43;;;10.93;;
21677;SDS011;11000;50.360;7.582;2022-12-07T06:51:49;17.77;;;11.33;;
21677;SDS011;11000;50.360;7.582;2022-12-07T06:54:10;18.50;;;11.73;;
21677;SDS011;11000;50.360;7.582;2022-12-07T06:56:32;21.67;;;12.13;;
21677;SDS011;11000;50.360;7.582;2022-12-07T06:58:52;20.67;;;12.50;;
21677;SDS011;11000;50.360;7.582;2022-12-07T07:01:13;19.03;;;11.90;;
21677;SDS011;11000;50.360;7.582;2022-12-07T07:03:35;17.20;;;11.10;;
21677;SDS011;11000;50.360;7.582;2022-12-07T07:05:56;19.67;;;11.73;;
21677;SDS011;11000;50.360;7.582;2022-12-07T07:08:17;17.97;;;11.17;;
21677;SDS011;11000;50.360;7.582;2022-12-07T07:10:37;19.80;;;12.03;;
21677;SDS011;11000;50.360;7.582;2022-12-07T07:12:58;20.17;;;12.10;;
21677;SDS011;11000;50.360;7.582;2022-12-07T07:15:18;15.93;;;10.83;;
21677;SDS011;11000;50.360;7.582;2022-12-07T07:17:39;17.07;;;11.00;;
21677;SDS011;11000;50.360;7.582;2022-12-07T07:20:00;19.27;;;11.47;;
21677;SDS011;11000;50.360;7.582;2022-12-07T07:22:20;17.53;;;10.73;;
21677;SDS011;11000;50.360;7.582;2022-12-07T07:24:41;20.67;;;11.77;;
21677;SDS011;11000;50.360;7.582;2022-12-07T07:27:01;17.13;;;10.93;;
21677;SDS011;11000;50.360;7.582;2022-12-07T07:29:22;19.10;;;9.87;;
21677;SDS011;11000;50.360;7.582;2022-12-07T07:31:43;19.63;;;10.47;;
21677;SDS011;11000;50.360;7.582;2022-12-07T07:34:03;13.97;;;9.47;;
21677;SDS011;11000;50.360;7.582;2022-12-07T07:36:24;16.67;;;9.53;;
21677;SDS011;11000;50.360;7.582;2022-12-07T07:38:44;14.40;;;9.43;;
21677;SDS011;11000;50.360;7.582;2022-12-07T07:41:05;15.30;;;9.00;;
21677;SDS011;11000;50.360;7.582;2022-12-07T07:43:25;11.20;;;7.13;;
21677;SDS011;11000;50.360;7.582;2022-12-07T07:45:46;10.33;;;7.10;;
21677;SDS011;11000;50.360;7.582;2022-12-07T07:48:07;11.77;;;7.50;;
21677;SDS011;11000;50.360;7.582;2022-12-07T07:50:27;11.53;;;6.73;;
21677;SDS011;11000;50.360;7.582;2022-12-07T07:52:48;11.87;;;6.87;;
21677;SDS011;11000;50.360;7.582;2022-12-07T07:55:09;12.07;;;6.83;;
21677;SDS011;11000;50.360;7.582;2022-12-07T07:57:30;11.50;;;6.90;;
21677;SDS011;11000;50.360;7.582;2022-12-07T07:59:51;13.53;;;6.77;;
21677;SDS011;11000;50.360;7.582;2022-12-07T08:02:15;10.93;;;7.50;;
21677;SDS011;11000;50.360;7.582;2022-12-07T08:04:37;12.23;;;7.47;;
21677;SDS011;11000;50.360;7.582;2022-12-07T08:06:57;12.67;;;7.67;;
21677;SDS011;11000;50.360;7.582;2022-12-07T08:09:30;13.80;;;7.67;;
21677;SDS011;11000;50.360;7.582;2022-12-07T08:11:53;11.13;;;7.03;;
21677;SDS011;11000;50.360;7.582;2022-12-07T08:14:14;10.00;;;7.20;;
21677;SDS011;11000;50.360;7.582;2022-12-07T08:16:34;13.73;;;7.57;;
21677;SDS011;11000;50.360;7.582;2022-12-07T08:18:55;10.20;;;6.17;;
21677;SDS011;11000;50.360;7.582;2022-12-07T08:21:16;12.60;;;7.03;;
21677;SDS011;11000;50.360;7.582;2022-12-07T08:23:36;9.93;;;6.40;;
21677;SDS011;11000;50.360;7.582;2022-12-07T08:26:04;9.83;;;5.80;;
21677;SDS011;11000;50.360;7.582;2022-12-07T08:28:27;9.30;;;5.87;;
21677;SDS011;11000;50.360;7.582;2022-12-07T08:30:48;8.57;;;5.87;;
21677;SDS011;11000;50.360;7.582;2022-12-07T08:33:09;14.23;;;6.27;;
21677;SDS011;11000;50.360;7.582;2022-12-07T08:35:32;8.47;;;5.70;;
21677;SDS011;11000;50.360;7.582;2022-12-07T08:37:56;8.93;;;6.00;;
21677;SDS011;11000;50.360;7.582;2022-12-07T08:40:17;9.50;;;6.10;;
21677;SDS011;11000;50.360;7.582;2022-12-07T08:42:38;10.67;;;5.87;;
21677;SDS011;11000;50.360;7.582;2022-12-07T08:45:00;9.13;;;6.03;;
21677;SDS011;11000;50.360;7.582;2022-12-07T08:47:20;9.33;;;6.03;;
21677;SDS011;11000;50.360;7.582;2022-12-07T08:49:41;9.63;;;6.27;;
21677;SDS011;11000;50.360;7.582;2022-12-07T08:52:06;13.17;;;6.17;;
21677;SDS011;11000;50.360;7.582;2022-12-07T08:54:26;11.90;;;6.50;;
21677;SDS011;11000;50.360;7.582;2022-12-07T08:56:48;9.93;;;6.40;;
21677;SDS011;11000;50.360;7.582;2022-12-07T08:59:12;7.87;;;5.87;;
21677;SDS011;11000;50.360;7.582;2022-12-07T09:01:35;12.63;;;6.20;;
21677;SDS011;11000;50.360;7.582;2022-12-07T09:03:56;11.37;;;6.50;;
21677;SDS011;11000;50.360;7.582;2022-12-07T09:06:16;13.43;;;6.60;;
21677;SDS011;11000;50.360;7.582;2022-12-07T09:08:39;8.47;;;5.83;;
21677;SDS011;11000;50.360;7.582;2022-12-07T09:11:02;10.87;;;7.17;;
21677;SDS011;11000;50.360;7.582;2022-12-07T09:13:23;10.83;;;7.13;;
21677;SDS011;11000;50.360;7.582;2022-12-07T09:15:43;11.00;;;7.47;;
21677;SDS011;11000;50.360;7.582;2022-12-07T09:18:04;12.33;;;7.17;;
21677;SDS011;11000;50.360;7.582;2022-12-07T09:20:24;9.00;;;6.97;;
21677;SDS011;11000;50.360;7.582;2022-12-07T09:22:45;9.10;;;6.87;;
21677;SDS011;11000;50.360;7.582;2022-12-07T09:25:05;11.17;;;6.90;;
21677;SDS011;11000;50.360;7.582;2022-12-07T09:27:27;8.40;;;6.87;;
21677;SDS011;11000;50.360;7.582;2022-12-07T09:29:48;14.90;;;6.77;;
21677;SDS011;11000;50.360;7.582;2022-12-07T09:32:09;9.97;;;6.17;;
21677;SDS011;11000;50.360;7.582;2022-12-07T09:34:32;11.20;;;7.00;;
21677;SDS011;11000;50.360;7.582;2022-12-07T09:36:53;9.23;;;6.17;;
21677;SDS011;11000;50.360;7.582;2022-12-07T09:39:13;10.43;;;6.77;;
21677;SDS011;11000;50.360;7.582;2022-12-07T09:41:36;10.00;;;6.90;;
21677;SDS011;11000;50.360;7.582;2022-12-07T09:44:06;11.57;;;6.73;;
21677;SDS011;11000;50.360;7.582;2022-12-07T09:46:36;9.57;;;5.93;;
21677;SDS011;11000;50.360;7.582;2022-12-07T09:49:00;9.80;;;6.23;;
21677;SDS011;11000;50.360;7.582;2022-12-07T09:51:22;9.60;;;7.03;;
21677;SDS011;11000;50.360;7.582;2022-12-07T09:53:43;12.27;;;6.97;;
21677;SDS011;11000;50.360;7.582;2022-12-07T09:56:05;13.17;;;7.30;;
21677;SDS011;11000;50.360;7.582;2022-12-07T09:58:27;9.60;;;6.70;;
21677;SDS011;11000;50.360;7.582;2022-12-07T10:00:54;12.57;;;7.13;;
21677;SDS011;11000;50.360;7.582;2022-12-07T10:03:18;11.77;;;6.63;;
21677;SDS011;11000;50.360;7.582;2022-12-07T10:05:41;12.53;;;7.30;;
21677;SDS011;11000;50.360;7.582;2022-12-07T10:08:05;10.77;;;6.60;;
21677;SDS011;11000;50.360;7.582;2022-12-07T10:10:32;9.93;;;6.87;;
21677;SDS011;11000;50.360;7.582;2022-12-07T10:12:56;13.37;;;6.27;;
21677;SDS011;11000;50.360;7.582;2022-12-07T10:15:18;9.90;;;6.33;;
21677;SDS011;11000;50.360;7.582;2022-12-07T10:17:40;10.57;;;6.27;;
21677;SDS011;11000;50.360;7.582;2022-12-07T10:22:54;11.37;;;6.47;;
21677;SDS011;11000;50.360;7.582;2022-12-07T10:25:20;10.30;;;6.50;;
21677;SDS011;11000;50.360;7.582;2022-12-07T10:27:42;7.87;;;5.87;;
21677;SDS011;11000;50.360;7.582;2022-12-07T10:30:03;10.10;;;5.93;;
21677;SDS011;11000;50.360;7.582;2022-12-07T10:32:34;9.87;;;6.30;;
21677;SDS011;11000;50.360;7.582;2022-12-07T10:37:49;11.50;;;6.40;;
21677;SDS011;11000;50.360;7.582;2022-12-07T10:40:34;7.27;;;5.40;;
21677;SDS011;11000;50.360;7.582;2022-12-07T10:43:02;10.03;;;5.33;;
21677;SDS011;11000;50.360;7.582;2022-12-07T10:48:12;10.60;;;5.80;;
21677;SDS011;11000;50.360;7.582;2022-12-07T10:53:58;9.53;;;6.10;;
21677;SDS011;11000;50.360;7.582;2022-12-07T10:59:13;11.10;;;5.43;;
21677;SDS011;11000;50.360;7.582;2022-12-07T11:01:45;8.67;;;5.03;;
21677;SDS011;11000;50.360;7.582;2022-12-07T11:07:38;7.47;;;5.00;;
21677;SDS011;11000;50.360;7.582;2022-12-07T11:18:59;7.10;;;4.53;;
21677;SDS011;11000;50.360;7.582;2022-12-07T11:24:06;7.13;;;4.27;;
21677;SDS011;11000;50.360;7.582;2022-12-07T11:26:36;9.57;;;4.60;;
21677;SDS011;11000;50.360;7.582;2022-12-07T11:34:32;12.60;;;4.87;;
21677;SDS011;11000;50.360;7.582;2022-12-07T11:37:10;8.17;;;4.07;;
21677;SDS011;11000;50.360;7.582;2022-12-07T11:39:37;8.00;;;4.00;;
21677;SDS011;11000;50.360;7.582;2022-12-07T11:42:04;6.17;;;3.70;;
21677;SDS011;11000;50.360;7.582;2022-12-07T11:44:48;7.73;;;3.87;;
21677;SDS011;11000;50.360;7.582;2022-12-07T11:47:17;5.50;;;3.70;;
21677;SDS011;11000;50.360;7.582;2022-12-07T11:52:48;7.10;;;4.00;;
21677;SDS011;11000;50.360;7.582;2022-12-07T11:55:22;6.53;;;2.30;;
21677;SDS011;11000;50.360;7.582;2022-12-07T11:57:50;4.73;;;1.53;;
21677;SDS011;11000;50.360;7.582;2022-12-07T12:00:18;4.00;;;1.17;;
21677;SDS011;11000;50.360;7.582;2022-12-07T12:05:16;3.97;;;0.83;;
21677;SDS011;11000;50.360;7.582;2022-12-07T12:07:41;4.40;;;0.87;;
21677;SDS011;11000;50.360;7.582;2022-12-07T12:10:26;3.03;;;0.70;;
21677;SDS011;11000;50.360;7.582;2022-12-07T12:13:06;3.47;;;1.03;;
21677;SDS011;11000;50.360;7.582;2022-12-07T12:16:25;1.20;;;0.63;;
21677;SDS011;11000;50.360;7.582;2022-12-07T12:19:17;1.63;;;0.73;;
21677;SDS011;11000;50.360;7.582;2022-12-07T12:21:44;3.67;;;1.00;;
21677;SDS011;11000;50.360;7.582;2022-12-07T12:24:12;5.20;;;1.00;;
21677;SDS011;11000;50.360;7.582;2022-12-07T12:26:37;3.43;;;1.20;;
21677;SDS011;11000;50.360;7.582;2022-12-07T12:29:00;3.10;;;1.20;;
21677;SDS011;11000;50.360;7.582;2022-12-07T12:33:44;2.20;;;1.10;;
21677;SDS011;11000;50.360;7.582;2022-12-07T12:38:51;3.23;;;1.47;;
21677;SDS011;11000;50.360;7.582;2022-12-07T12:43:58;4.87;;;1.50;;
21677;SDS011;11000;50.360;7.582;2022-12-07T12:48:55;3.87;;;1.13;;
21677;SDS011;11000;50.360;7.582;2022-12-07T12:51:38;2.10;;;0.97;;
21677;SDS011;11000;50.360;7.582;2022-12-07T12:54:11;1.57;;;1.10;;
21677;SDS011;11000;50.360;7.582;2022-12-07T12:56:40;3.00;;;1.10;;
21677;SDS011;11000;50.360;7.582;2022-12-07T12:59:18;3.60;;;1.23;;
21677;SDS011;11000;50.360;7.582;2022-12-07T13:01:45;5.30;;;1.43;;
21677;SDS011;11000;50.360;7.582;2022-12-07T13:06:45;3.20;;;1.10;;
21677;SDS011;11000;50.360;7.582;2022-12-07T13:09:15;4.57;;;1.30;;
21677;SDS011;11000;50.360;7.582;2022-12-07T13:11:41;3.33;;;1.30;;
21677;SDS011;11000;50.360;7.582;2022-12-07T13:17:00;2.70;;;1.03;;
21677;SDS011;11000;50.360;7.582;2022-12-07T13:19:52;2.97;;;1.10;;
21677;SDS011;11000;50.360;7.582;2022-12-07T13:24:59;3.83;;;1.03;;
21677;SDS011;11000;50.360;7.582;2022-12-07T13:27:32;1.93;;;1.07;;
21677;SDS011;11000;50.360;7.582;2022-12-07T13:29:55;4.20;;;1.30;;
21677;SDS011;11000;50.360;7.582;2022-12-07T13:32:23;4.60;;;1.10;;
21677;SDS011;11000;50.360;7.582;2022-12-07T13:34:48;4.17;;;0.90;;
21677;SDS011;11000;50.360;7.582;2022-12-07T13:37:18;2.37;;;0.90;;
21677;SDS011;11000;50.360;7.582;2022-12-07T13:39:47;3.27;;;0.97;;
21677;SDS011;11000;50.360;7.582;2022-12-07T13:42:56;2.37;;;0.80;;
21677;SDS011;11000;50.360;7.582;2022-12-07T13:44:56;1.93;;;0.80;;
21677;SDS011;11000;50.360;7.582;2022-12-07T13:49:53;4.47;;;1.43;;
21677;SDS011;11000;50.360;7.582;2022-12-07T13:52:16;4.93;;;1.00;;
21677;SDS011;11000;50.360;7.582;2022-12-07T13:54:45;4.03;;;1.33;;
21677;SDS011;11000;50.360;7.582;2022-12-07T13:57:08;5.00;;;1.70;;
21677;SDS011;11000;50.360;7.582;2022-12-07T13:59:29;1.97;;;1.20;;
21677;SDS011;11000;50.360;7.582;2022-12-07T14:01:53;3.57;;;1.23;;
21677;SDS011;11000;50.360;7.582;2022-12-07T14:04:17;3.93;;;1.33;;
21677;SDS011;11000;50.360;7.582;2022-12-07T14:06:50;3.60;;;1.40;;
21677;SDS011;11000;50.360;7.582;2022-12-07T14:09:21;3.57;;;1.40;;
21677;SDS011;11000;50.360;7.582;2022-12-07T14:11:44;3.27;;;1.70;;
21677;SDS011;11000;50.360;7.582;2022-12-07T14:14:10;4.57;;;1.87;;
21677;SDS011;11000;50.360;7.582;2022-12-07T14:16:36;3.97;;;1.57;;
21677;SDS011;11000;50.360;7.582;2022-12-07T14:18:59;3.90;;;1.60;;
21677;SDS011;11000;50.360;7.582;2022-12-07T14:21:23;1.97;;;1.17;;
21677;SDS011;11000;50.360;7.582;2022-12-07T14:23:46;3.17;;;1.20;;
21677;SDS011;11000;50.360;7.582;2022-12-07T14:26:31;2.67;;;1.50;;
21677;SDS011;11000;50.360;7.582;2022-12-07T14:28:51;4.13;;;1.70;;
21677;SDS011;11000;50.360;7.582;2022-12-07T14:31:20;5.90;;;1.70;;
21677;SDS011;11000;50.360;7.582;2022-12-07T14:33:44;3.40;;;1.50;;
21677;SDS011;11000;50.360;7.582;2022-12-07T14:36:04;4.53;;;1.70;;
21677;SDS011;11000;50.360;7.582;2022-12-07T14:38:25;7.63;;;2.13;;
21677;SDS011;11000;50.360;7.582;2022-12-07T14:40:46;3.67;;;1.57;;
21677;SDS011;11000;50.360;7.582;2022-12-07T14:43:14;4.97;;;1.30;;
21677;SDS011;11000;50.360;7.582;2022-12-07T14:45:36;6.13;;;1.60;;
21677;SDS011;11000;50.360;7.582;2022-12-07T14:47:57;9.57;;;2.33;;
21677;SDS011;11000;50.360;7.582;2022-12-07T14:50:18;3.40;;;1.80;;
21677;SDS011;11000;50.360;7.582;2022-12-07T14:52:40;4.83;;;1.83;;
21677;SDS011;11000;50.360;7.582;2022-12-07T14:55:03;3.63;;;1.63;;
21677;SDS011;11000;50.360;7.582;2022-12-07T14:57:24;4.40;;;1.83;;
21677;SDS011;11000;50.360;7.582;2022-12-07T14:59:45;3.83;;;1.77;;
21677;SDS011;11000;50.360;7.582;2022-12-07T15:02:06;4.87;;;2.10;;
21677;SDS011;11000;50.360;7.582;2022-12-07T15:04:27;3.60;;;2.00;;
21677;SDS011;11000;50.360;7.582;2022-12-07T15:06:55;3.97;;;2.07;;
21677;SDS011;11000;50.360;7.582;2022-12-07T15:09:19;6.10;;;2.50;;
21677;SDS011;11000;50.360;7.582;2022-12-07T15:11:40;5.07;;;2.10;;
21677;SDS011;11000;50.360;7.582;2022-12-07T15:14:00;10.30;;;2.43;;
21677;SDS011;11000;50.360;7.582;2022-12-07T15:16:31;7.40;;;2.63;;
21677;SDS011;11000;50.360;7.582;2022-12-07T15:18:51;6.80;;;2.83;;
21677;SDS011;11000;50.360;7.582;2022-12-07T15:21:13;3.27;;;2.27;;
21677;SDS011;11000;50.360;7.582;2022-12-07T15:23:34;5.63;;;2.57;;
21677;SDS011;11000;50.360;7.582;2022-12-07T15:25:55;3.23;;;2.70;;
21677;SDS011;11000;50.360;7.582;2022-12-07T15:28:15;10.10;;;3.03;;
21677;SDS011;11000;50.360;7.582;2022-12-07T15:30:39;4.43;;;2.60;;
21677;SDS011;11000;50.360;7.582;2022-12-07T15:33:02;6.50;;;3.17;;
21677;SDS011;11000;50.360;7.582;2022-12-07T15:35:23;5.57;;;2.60;;
21677;SDS011;11000;50.360;7.582;2022-12-07T15:37:43;5.47;;;2.60;;
21677;SDS011;11000;50.360;7.582;2022-12-07T15:40:04;6.60;;;3.03;;
21677;SDS011;11000;50.360;7.582;2022-12-07T15:42:25;7.83;;;2.73;;
21677;SDS011;11000;50.360;7.582;2022-12-07T15:44:46;6.27;;;2.70;;
21677;SDS011;11000;50.360;7.582;2022-12-07T15:47:25;6.87;;;3.00;;
21677;SDS011;11000;50.360;7.582;2022-12-07T15:49:46;9.80;;;3.23;;
21677;SDS011;11000;50.360;7.582;2022-12-07T15:52:07;5.77;;;3.33;;
21677;SDS011;11000;50.360;7.582;2022-12-07T15:54:27;15.27;;;3.40;;